createdAt,value
2023-04-14T00:09:30.117Z,5.50
2023-04-14T00:19:31.836Z,5.10
2023-04-14T00:29:33.588Z,6.17
2023-04-14T00:39:35.393Z,8.40
2023-04-14T00:49:37.902Z,14.00
2023-04-14T00:59:39.596Z,9.87
2023-04-14T01:09:41.272Z,12.13
2023-04-14T01:20:00.006Z,7.10
2023-04-14T01:30:35.232Z,7.40
2023-04-14T01:40:40.959Z,9.53
2023-04-14T01:50:43.302Z,11.37
2023-04-14T02:00:46.001Z,10.97
2023-04-14T02:10:49.995Z,7.13
2023-04-14T02:20:53.899Z,7.00
2023-04-14T02:30:58.515Z,10.00
2023-04-14T02:41:02.928Z,9.17
2023-04-14T02:51:07.121Z,9.00
2023-04-14T03:01:09.743Z,8.30
2023-04-14T03:11:13.998Z,10.90
2023-04-14T03:21:18.566Z,7.00
2023-04-14T03:31:22.883Z,8.43
2023-04-14T03:41:26.496Z,6.27
2023-04-14T03:51:32.163Z,6.00
2023-04-14T04:01:34.505Z,5.13
2023-04-14T04:11:37.865Z,4.23
2023-04-14T04:21:42.164Z,5.33
2023-04-14T04:31:43.998Z,4.20
2023-04-14T04:41:46.371Z,4.73
2023-04-14T04:51:48.335Z,6.07
2023-04-14T05:01:50.473Z,5.10
2023-04-14T05:11:52.212Z,4.33
2023-04-14T05:21:55.631Z,2.87
2023-04-14T05:31:57.309Z,2.50
2023-04-14T05:41:59.993Z,3.40
2023-04-14T05:52:01.778Z,3.50
2023-04-14T06:02:07.233Z,3.40
2023-04-14T06:12:09.762Z,3.13
2023-04-14T06:22:11.858Z,4.30
2023-04-14T06:32:13.579Z,3.53
2023-04-14T06:42:15.506Z,3.50
2023-04-14T06:52:17.185Z,3.57
2023-04-14T07:02:18.892Z,3.23
2023-04-14T07:12:20.581Z,3.53
2023-04-14T07:22:22.216Z,3.73
2023-04-14T07:32:24.137Z,4.00
2023-04-14T07:42:26.368Z,3.60
2023-04-14T07:52:28.924Z,4.00
2023-04-14T08:02:31.675Z,3.97
2023-04-14T08:12:33.451Z,4.20
2023-04-14T08:22:35.232Z,3.70
2023-04-14T08:32:37.131Z,3.70
2023-04-14T08:42:38.828Z,3.70
2023-04-14T08:52:41.977Z,2.90
2023-04-14T09:02:44.624Z,3.50
2023-04-14T09:12:47.138Z,3.43
2023-04-14T09:22:48.902Z,3.60
2023-04-14T09:32:55.677Z,4.10
2023-04-14T09:42:58.754Z,4.93
2023-04-14T09:53:04.365Z,5.33
2023-04-14T10:03:06.151Z,5.20
2023-04-14T10:13:08.439Z,4.93
2023-04-14T10:23:11.225Z,5.77
2023-04-14T10:33:14.438Z,5.00
2023-04-14T10:43:16.363Z,4.00
2023-04-14T10:53:18.504Z,4.30
2023-04-14T11:03:20.363Z,3.83
2023-04-14T11:13:22.312Z,2.70
2023-04-14T11:23:28.440Z,2.43
2023-04-14T11:33:35.885Z,2.00
2023-04-14T11:43:38.285Z,1.80
2023-04-14T11:53:40.693Z,2.00
2023-04-14T12:03:43.258Z,1.30
2023-04-14T12:13:46.575Z,1.60
2023-04-14T12:23:49.129Z,1.50
2023-04-14T12:33:51.178Z,1.43
2023-04-14T12:43:52.866Z,2.00
2023-04-14T12:54:07.469Z,2.20
2023-04-14T13:04:09.503Z,2.20
2023-04-14T13:14:11.361Z,1.87
2023-04-14T13:24:13.050Z,3.30
2023-04-14T13:34:14.791Z,2.27
2023-04-14T13:44:17.012Z,1.50
2023-04-14T13:54:18.680Z,1.60
2023-04-14T14:04:20.779Z,1.40
2023-04-14T14:14:23.447Z,1.58
2023-04-14T14:24:25.597Z,1.20
2023-04-14T14:34:27.674Z,1.10
2023-04-14T14:44:29.823Z,1.00
2023-04-14T14:54:31.942Z,0.90
2023-04-14T15:04:34.169Z,0.80
2023-04-14T15:14:35.934Z,1.10
2023-04-14T15:24:37.691Z,1.23
2023-04-14T15:34:39.388Z,1.23
2023-04-14T15:44:41.070Z,1.90
2023-04-14T15:54:42.718Z,1.80
2023-04-14T16:04:44.471Z,1.20
2023-04-14T16:14:46.353Z,1.40
2023-04-14T16:24:48.053Z,1.20
2023-04-14T16:34:49.775Z,1.60
2023-04-14T16:44:52.799Z,2.80
2023-04-14T16:54:54.603Z,2.97
2023-04-14T17:04:58.249Z,1.80
2023-04-14T17:15:00.703Z,1.40
2023-04-14T17:25:04.726Z,1.97
2023-04-14T17:35:07.057Z,1.90
2023-04-14T17:45:09.109Z,2.47
2023-04-14T17:55:11.007Z,2.27
2023-04-14T18:05:13.151Z,1.50
2023-04-14T18:15:17.927Z,2.10
2023-04-14T18:25:20.331Z,2.47
2023-04-14T18:35:22.129Z,2.30
2023-04-14T18:45:23.767Z,4.37
2023-04-14T18:55:25.455Z,2.10
2023-04-14T19:05:27.222Z,2.17
2023-04-14T19:15:29.343Z,1.90
2023-04-14T19:25:31.232Z,2.20
2023-04-14T19:35:33.010Z,2.10
2023-04-14T19:45:34.824Z,2.13
2023-04-14T19:55:36.472Z,2.40
2023-04-14T20:05:38.254Z,2.00
2023-04-14T20:15:40.282Z,3.63
2023-04-14T20:25:43.985Z,3.20
2023-04-14T20:35:45.818Z,4.20
2023-04-14T20:45:49.826Z,2.80
2023-04-14T20:55:51.817Z,4.20
2023-04-14T21:05:53.555Z,4.30
2023-04-14T21:15:56.258Z,5.63
2023-04-14T21:25:59.846Z,5.63
2023-04-14T21:36:02.211Z,5.33
2023-04-14T21:46:05.159Z,4.90
2023-04-14T21:56:10.387Z,4.73
2023-04-14T22:06:13.532Z,4.23
2023-04-14T22:16:16.472Z,5.00
2023-04-14T22:26:18.293Z,5.17
2023-04-14T22:36:20.081Z,6.50
2023-04-14T22:46:21.839Z,5.60
2023-04-14T22:56:23.505Z,5.27
2023-04-14T23:06:25.179Z,6.07
2023-04-14T23:16:27.491Z,5.20
2023-04-14T23:26:29.498Z,4.87
2023-04-14T23:36:31.804Z,5.00
2023-04-14T23:46:34.156Z,6.23
2023-04-14T23:56:36.609Z,5.90
